createdAt,value
2018-02-27T00:01:41.928Z,1.30
2018-02-27T00:04:09.376Z,1.60
2018-02-27T00:06:37.047Z,2.45
2018-02-27T00:09:04.508Z,2.10
2018-02-27T00:11:31.992Z,1.52
2018-02-27T00:13:59.665Z,1.60
2018-02-27T00:16:27.135Z,2.35
2018-02-27T00:18:54.704Z,1.65
2018-02-27T00:21:22.346Z,2.20
2018-02-27T00:23:49.811Z,3.12
2018-02-27T00:26:17.320Z,2.75
2018-02-27T00:28:44.869Z,2.78
2018-02-27T00:31:12.635Z,3.30
2018-02-27T00:33:40.401Z,1.40
2018-02-27T00:36:07.876Z,3.00
2018-02-27T00:38:35.619Z,2.97
2018-02-27T00:41:03.075Z,3.70
2018-02-27T00:43:30.535Z,2.17
2018-02-27T00:45:58.300Z,1.60
2018-02-27T00:48:25.880Z,4.05
2018-02-27T00:50:54.148Z,2.33
2018-02-27T00:53:21.811Z,2.78
2018-02-27T00:55:49.364Z,0.95
2018-02-27T00:58:17.127Z,4.53
2018-02-27T01:00:44.584Z,4.45
2018-02-27T01:03:12.046Z,1.73
2018-02-27T01:05:39.619Z,3.12
2018-02-27T01:08:07.092Z,1.15
2018-02-27T01:10:35.308Z,4.15
2018-02-27T01:13:02.799Z,5.05
2018-02-27T01:15:30.259Z,3.00
2018-02-27T01:17:57.715Z,1.62
2018-02-27T01:20:25.190Z,3.10
2018-02-27T01:22:52.931Z,1.50
2018-02-27T01:25:20.392Z,3.15
2018-02-27T01:27:47.866Z,1.73
2018-02-27T01:30:15.615Z,2.00
2018-02-27T01:32:43.080Z,1.83
2018-02-27T01:35:10.547Z,4.20
2018-02-27T01:37:38.787Z,1.65
2018-02-27T01:40:06.376Z,1.98
2018-02-27T01:42:33.843Z,3.55
2018-02-27T01:45:01.517Z,12.88
2018-02-27T01:47:28.975Z,0.98
2018-02-27T01:49:56.450Z,2.55
2018-02-27T01:52:23.899Z,4.82
2018-02-27T01:54:51.424Z,8.27
2018-02-27T01:57:19.224Z,1.15
2018-02-27T01:59:46.655Z,3.12
2018-02-27T02:02:14.109Z,1.58
2018-02-27T02:04:41.579Z,2.50
2018-02-27T02:07:09.264Z,2.80
2018-02-27T02:09:36.794Z,1.45
2018-02-27T02:12:04.255Z,2.08
2018-02-27T02:14:31.712Z,1.17
2018-02-27T02:16:59.168Z,1.20
2018-02-27T02:19:26.630Z,1.02
2018-02-27T02:21:54.393Z,2.75
2018-02-27T02:24:21.849Z,2.25
2018-02-27T02:26:49.316Z,2.87
2018-02-27T02:29:16.776Z,1.52
2018-02-27T02:31:44.234Z,0.75
2018-02-27T02:34:11.700Z,2.08
2018-02-27T02:36:39.441Z,1.10
2018-02-27T02:39:07.200Z,1.33
2018-02-27T02:41:34.963Z,1.77
2018-02-27T02:44:02.712Z,1.15
2018-02-27T02:46:30.349Z,1.12
2018-02-27T02:48:57.812Z,1.58
2018-02-27T02:51:25.413Z,1.92
2018-02-27T02:53:52.871Z,1.20
2018-02-27T02:56:20.327Z,2.50
2018-02-27T02:58:48.083Z,1.55
2018-02-27T03:01:15.862Z,1.55
2018-02-27T03:03:43.312Z,1.30
2018-02-27T03:06:10.780Z,1.42
2018-02-27T03:08:38.539Z,3.67
2018-02-27T03:11:05.999Z,1.77
2018-02-27T03:13:33.760Z,5.22
2018-02-27T03:16:02.067Z,1.05
2018-02-27T03:18:29.552Z,2.10
2018-02-27T03:20:57.060Z,0.80
2018-02-27T03:23:24.523Z,3.80
2018-02-27T03:25:51.982Z,1.35
2018-02-27T03:28:19.436Z,2.37
2018-02-27T03:30:46.892Z,1.10
2018-02-27T03:33:14.647Z,2.55
2018-02-27T03:35:42.415Z,1.87
2018-02-27T03:38:10.184Z,1.42
2018-02-27T03:40:37.644Z,4.75
2018-02-27T03:43:05.123Z,2.33
2018-02-27T03:45:32.864Z,7.00
2018-02-27T03:48:00.320Z,3.42
2018-02-27T03:50:28.004Z,3.33
2018-02-27T03:52:55.525Z,7.68
2018-02-27T03:55:22.999Z,2.37
2018-02-27T03:57:50.455Z,7.72
2018-02-27T04:00:17.924Z,2.80
2018-02-27T04:02:45.601Z,1.45
2018-02-27T04:05:13.148Z,3.00
2018-02-27T04:07:40.599Z,1.77
2018-02-27T04:10:08.055Z,2.03
2018-02-27T04:12:35.750Z,8.82
2018-02-27T04:15:03.208Z,4.65
2018-02-27T04:17:30.847Z,5.10
2018-02-27T04:19:58.501Z,3.83
2018-02-27T04:22:25.955Z,2.28
2018-02-27T04:24:53.423Z,5.50
2018-02-27T04:27:21.187Z,3.15
2018-02-27T04:29:48.871Z,6.62
2018-02-27T04:32:16.408Z,5.00
2018-02-27T04:34:43.887Z,5.30
2018-02-27T04:37:11.629Z,1.65
2018-02-27T04:39:39.092Z,9.57
2018-02-27T04:42:07.007Z,2.25
2018-02-27T04:44:34.616Z,5.05
2018-02-27T04:47:02.076Z,2.60
2018-02-27T04:49:29.543Z,3.65
2018-02-27T04:51:57.224Z,1.45
2018-02-27T04:54:24.738Z,2.20
2018-02-27T04:56:52.212Z,2.45
2018-02-27T04:59:19.688Z,2.80
2018-02-27T05:01:47.441Z,3.00
2018-02-27T05:04:15.112Z,5.53
2018-02-27T05:06:42.580Z,5.30
2018-02-27T05:09:10.799Z,5.82
2018-02-27T05:11:38.491Z,1.50
2018-02-27T05:14:05.952Z,2.12
2018-02-27T05:16:33.408Z,4.00
2018-02-27T05:19:01.179Z,3.50
2018-02-27T05:21:28.635Z,2.08
2018-02-27T05:23:56.172Z,4.93
2018-02-27T05:26:23.775Z,2.08
2018-02-27T05:28:51.232Z,1.50
2018-02-27T05:31:18.763Z,1.80
2018-02-27T05:33:46.227Z,1.40
2018-02-27T05:36:13.688Z,2.45
2018-02-27T05:38:41.452Z,2.53
2018-02-27T05:41:09.066Z,3.33
2018-02-27T05:43:36.677Z,3.83
2018-02-27T05:46:04.140Z,2.45
2018-02-27T05:48:31.811Z,1.98
2018-02-27T05:50:59.355Z,3.08
2018-02-27T05:53:26.828Z,1.58
2018-02-27T05:55:54.581Z,3.30
2018-02-27T05:58:22.037Z,14.07
2018-02-27T06:00:49.493Z,2.58
2018-02-27T06:03:16.955Z,2.10
2018-02-27T06:05:44.718Z,2.90
2018-02-27T06:08:12.178Z,3.17
2018-02-27T06:10:39.628Z,1.77
2018-02-27T06:13:07.416Z,4.53
2018-02-27T06:15:35.094Z,2.45
2018-02-27T06:18:02.619Z,1.60
2018-02-27T06:20:30.390Z,3.87
2018-02-27T06:22:58.147Z,1.55
2018-02-27T06:25:25.912Z,3.58
2018-02-27T06:27:53.367Z,2.00
2018-02-27T06:30:20.828Z,2.40
2018-02-27T06:32:48.287Z,1.98
2018-02-27T06:35:15.972Z,3.67
2018-02-27T06:37:43.428Z,5.18
2018-02-27T06:40:10.975Z,1.95
2018-02-27T06:42:38.430Z,4.22
2018-02-27T06:45:06.188Z,2.33
2018-02-27T06:47:33.657Z,2.30
2018-02-27T06:50:01.418Z,2.78
2018-02-27T06:52:28.893Z,3.05
2018-02-27T06:54:56.580Z,2.08
2018-02-27T06:57:24.092Z,2.47
2018-02-27T06:59:51.552Z,4.68
2018-02-27T07:02:19.027Z,2.92
2018-02-27T07:04:46.776Z,4.55
2018-02-27T07:07:14.549Z,2.97
2018-02-27T07:09:42.230Z,3.40
2018-02-27T07:12:09.694Z,5.43
2018-02-27T07:14:37.215Z,4.53
2018-02-27T07:17:04.983Z,7.90
2018-02-27T07:19:32.452Z,3.60
2018-02-27T07:22:00.208Z,4.20
2018-02-27T07:24:27.667Z,8.38
2018-02-27T07:26:55.123Z,2.80
2018-02-27T07:29:22.917Z,5.43
2018-02-27T07:31:50.384Z,5.15
2018-02-27T07:34:18.028Z,3.28
2018-02-27T07:36:45.500Z,5.18
2018-02-27T07:39:13.948Z,5.25
2018-02-27T07:41:41.716Z,6.12
2018-02-27T07:44:09.483Z,2.65
2018-02-27T07:46:36.961Z,2.83
2018-02-27T07:49:04.412Z,4.40
2018-02-27T07:51:32.638Z,2.97
2018-02-27T07:54:00.237Z,4.95
2018-02-27T07:56:27.696Z,19.92
2018-02-27T07:58:55.281Z,3.25
2018-02-27T08:01:23.512Z,2.62
2018-02-27T08:03:50.976Z,6.65
2018-02-27T08:06:18.651Z,5.97
2018-02-27T08:08:46.218Z,4.87
2018-02-27T08:11:13.891Z,2.75
2018-02-27T08:13:41.352Z,4.07
2018-02-27T08:16:08.992Z,3.75
2018-02-27T08:18:36.456Z,4.47
2018-02-27T08:21:03.912Z,2.65
2018-02-27T08:23:31.376Z,2.83
2018-02-27T08:25:58.832Z,17.35
2018-02-27T08:28:26.300Z,4.00
2018-02-27T08:30:54.560Z,2.95
2018-02-27T08:33:22.020Z,4.45
2018-02-27T08:35:49.488Z,4.18
2018-02-27T08:38:17.238Z,4.10
2018-02-27T08:40:44.695Z,3.95
2018-02-27T08:43:12.147Z,3.83
2018-02-27T08:45:39.620Z,3.58
2018-02-27T08:48:07.079Z,5.95
2018-02-27T08:50:34.647Z,3.25
2018-02-27T08:53:02.896Z,2.40
2018-02-27T08:55:30.659Z,2.72
2018-02-27T08:57:58.157Z,5.78
2018-02-27T09:00:25.823Z,4.28
2018-02-27T09:02:53.281Z,6.87
2018-02-27T09:05:20.811Z,4.78
2018-02-27T09:07:48.276Z,5.75
2018-02-27T09:10:15.751Z,2.80
2018-02-27T09:12:43.379Z,7.07
2018-02-27T09:15:10.849Z,4.90
2018-02-27T09:17:38.320Z,7.80
2018-02-27T09:20:05.791Z,3.85
2018-02-27T09:22:33.256Z,5.87
2018-02-27T09:25:00.703Z,6.78
2018-02-27T09:27:28.931Z,4.55
2018-02-27T09:29:56.389Z,2.80
2018-02-27T09:32:23.924Z,3.10
2018-02-27T09:34:51.536Z,4.70
2018-02-27T09:37:19.007Z,5.57
2018-02-27T09:39:46.755Z,3.62
2018-02-27T09:42:14.208Z,4.70
2018-02-27T09:44:41.669Z,4.15
2018-02-27T09:47:09.127Z,5.32
2018-02-27T09:49:36.581Z,4.18
2018-02-27T09:52:04.201Z,4.28
2018-02-27T09:54:31.729Z,2.58
2018-02-27T09:56:59.197Z,3.87
2018-02-27T09:59:26.725Z,7.68
2018-02-27T10:01:54.180Z,3.50
2018-02-27T10:04:21.947Z,4.72
2018-02-27T10:06:49.398Z,3.72
2018-02-27T10:09:16.871Z,2.50
2018-02-27T10:11:44.328Z,4.95
2018-02-27T10:14:11.788Z,17.08
2018-02-27T10:16:39.516Z,1.85
2018-02-27T10:19:06.980Z,2.45
2018-02-27T10:21:34.473Z,2.87
2018-02-27T10:24:02.155Z,2.40
2018-02-27T10:26:30.390Z,2.20
2018-02-27T10:28:57.857Z,6.95
2018-02-27T10:31:25.321Z,2.65
2018-02-27T10:33:52.976Z,1.60
2018-02-27T10:36:20.738Z,2.25
2018-02-27T10:38:48.511Z,5.20
2018-02-27T10:41:16.195Z,1.83
2018-02-27T10:43:43.652Z,2.22
2018-02-27T10:46:11.121Z,2.87
2018-02-27T10:48:38.653Z,2.80
2018-02-27T10:51:06.421Z,1.87
2018-02-27T10:53:33.878Z,2.55
2018-02-27T10:56:01.447Z,3.80
2018-02-27T10:58:29.692Z,3.22
2018-02-27T11:00:57.940Z,1.62
2018-02-27T11:03:25.495Z,1.35
2018-02-27T11:05:52.955Z,1.33
2018-02-27T11:08:20.423Z,1.48
2018-02-27T11:10:47.875Z,4.60
2018-02-27T11:13:15.338Z,1.67
2018-02-27T11:15:42.796Z,2.75
2018-02-27T11:18:10.254Z,2.15
2018-02-27T11:20:37.721Z,6.90
2018-02-27T11:23:05.212Z,9.68
2018-02-27T11:25:32.887Z,3.35
2018-02-27T11:28:00.344Z,2.00
2018-02-27T11:30:27.791Z,4.43
2018-02-27T11:32:55.343Z,2.92
2018-02-27T11:35:22.800Z,1.95
2018-02-27T11:37:50.262Z,1.70
2018-02-27T11:40:17.720Z,3.78
2018-02-27T11:42:45.200Z,3.25
2018-02-27T11:45:12.655Z,3.90
2018-02-27T11:47:40.184Z,2.75
2018-02-27T11:50:07.647Z,3.25
2018-02-27T11:52:35.228Z,2.53
2018-02-27T11:55:02.691Z,2.33
2018-02-27T11:57:30.908Z,2.08
2018-02-27T11:59:58.531Z,1.77
2018-02-27T12:02:25.984Z,2.50
2018-02-27T12:04:53.453Z,1.60
2018-02-27T12:07:21.676Z,2.50
2018-02-27T12:09:49.282Z,3.45
2018-02-27T12:12:16.749Z,2.08
2018-02-27T12:14:44.291Z,1.30
2018-02-27T12:17:12.049Z,1.35
2018-02-27T12:19:39.502Z,3.22
2018-02-27T12:22:06.975Z,2.08
2018-02-27T12:24:34.432Z,1.77
2018-02-27T12:27:01.888Z,2.55
2018-02-27T12:29:29.639Z,1.83
2018-02-27T12:31:57.096Z,4.47
2018-02-27T12:34:24.560Z,1.87
2018-02-27T12:36:52.319Z,4.53
2018-02-27T12:39:20.059Z,4.55
2018-02-27T12:41:47.544Z,3.05
2018-02-27T12:44:15.008Z,17.25
2018-02-27T12:46:42.768Z,4.50
2018-02-27T12:49:10.225Z,2.30
2018-02-27T12:51:37.996Z,1.60
2018-02-27T12:54:05.460Z,2.92
2018-02-27T12:56:32.916Z,1.50
2018-02-27T12:59:00.685Z,1.37
2018-02-27T13:01:28.432Z,2.90
2018-02-27T13:03:56.204Z,2.05
2018-02-27T13:06:25.592Z,3.08
2018-02-27T13:08:53.880Z,1.62
2018-02-27T13:11:21.367Z,2.30
2018-02-27T13:13:48.795Z,2.83
2018-02-27T13:16:16.579Z,1.30
2018-02-27T13:18:44.032Z,2.60
2018-02-27T13:21:11.476Z,2.70
2018-02-27T13:23:39.240Z,2.75
2018-02-27T13:26:06.706Z,2.08
2018-02-27T13:28:34.168Z,2.10
2018-02-27T13:31:01.929Z,1.70
2018-02-27T13:33:29.398Z,1.62
2018-02-27T13:35:57.000Z,10.88
2018-02-27T13:38:24.600Z,2.37
2018-02-27T13:40:52.367Z,4.20
2018-02-27T13:43:19.819Z,2.12
2018-02-27T13:45:47.268Z,1.58
2018-02-27T13:48:14.781Z,2.15
2018-02-27T13:50:42.311Z,1.70
2018-02-27T13:53:09.764Z,1.58
2018-02-27T13:55:37.346Z,3.65
2018-02-27T13:58:05.804Z,1.65
2018-02-27T14:00:33.256Z,1.23
2018-02-27T14:03:01.023Z,1.67
2018-02-27T14:05:28.792Z,1.50
2018-02-27T14:07:56.560Z,1.70
2018-02-27T14:10:24.011Z,4.15
2018-02-27T14:12:51.476Z,2.05
2018-02-27T14:15:19.041Z,1.70
2018-02-27T14:17:46.496Z,2.72
2018-02-27T14:20:14.152Z,2.30
2018-02-27T14:22:41.613Z,1.77
2018-02-27T14:25:09.081Z,2.50
2018-02-27T14:27:36.531Z,3.47
2018-02-27T14:30:04.192Z,2.75
2018-02-27T14:32:31.784Z,3.47
2018-02-27T14:34:59.524Z,2.25
2018-02-27T14:37:27.192Z,2.80
2018-02-27T14:39:54.739Z,3.12
2018-02-27T14:42:22.211Z,8.45
2018-02-27T14:44:50.126Z,4.93
2018-02-27T14:47:17.725Z,2.70
2018-02-27T14:49:45.196Z,2.45
2018-02-27T14:52:12.792Z,4.97
2018-02-27T14:54:40.264Z,2.17
2018-02-27T14:57:07.814Z,2.85
2018-02-27T14:59:35.268Z,5.35
2018-02-27T15:02:02.786Z,2.15
2018-02-27T15:04:30.243Z,2.65
2018-02-27T15:06:57.701Z,2.40
2018-02-27T15:09:25.319Z,1.87
2018-02-27T15:11:52.918Z,2.90
2018-02-27T15:14:20.685Z,1.50
2018-02-27T15:16:48.135Z,2.97
2018-02-27T15:19:15.612Z,1.55
2018-02-27T15:21:43.292Z,1.87
2018-02-27T15:24:11.544Z,4.75
2018-02-27T15:26:39.140Z,2.45
2018-02-27T15:29:06.669Z,2.75
2018-02-27T15:31:34.341Z,1.98
2018-02-27T15:34:01.808Z,2.00
2018-02-27T15:36:29.262Z,1.95
2018-02-27T15:38:57.123Z,1.87
2018-02-27T15:41:24.572Z,1.70
2018-02-27T15:43:52.027Z,2.87
2018-02-27T15:46:19.853Z,1.83
2018-02-27T15:48:47.316Z,1.85
2018-02-27T15:51:15.012Z,2.37
2018-02-27T15:53:42.776Z,1.87
2018-02-27T15:56:10.227Z,2.72
2018-02-27T15:58:38.000Z,2.42
2018-02-27T16:01:05.768Z,2.75
2018-02-27T16:03:33.231Z,4.62
2018-02-27T16:06:00.988Z,8.50
2018-02-27T16:08:28.455Z,3.67
2018-02-27T16:10:56.211Z,2.17
2018-02-27T16:13:23.675Z,2.35
2018-02-27T16:15:51.144Z,2.35
2018-02-27T16:18:18.604Z,7.12
2018-02-27T16:20:46.076Z,2.78
2018-02-27T16:23:13.535Z,2.95
2018-02-27T16:25:41.263Z,5.93
2018-02-27T16:28:08.733Z,2.72
2018-02-27T16:30:36.192Z,2.67
2018-02-27T16:33:03.645Z,6.00
2018-02-27T16:35:31.104Z,2.55
2018-02-27T16:37:58.559Z,3.28
2018-02-27T16:40:26.323Z,2.90
2018-02-27T16:42:53.777Z,9.55
2018-02-27T16:45:21.235Z,2.55
2018-02-27T16:47:49.008Z,3.08
2018-02-27T16:50:16.463Z,2.47
2018-02-27T16:52:43.924Z,2.15
2018-02-27T16:55:11.684Z,5.85
2018-02-27T16:57:39.143Z,4.70
2018-02-27T17:00:06.757Z,2.55
2018-02-27T17:02:34.302Z,3.25
2018-02-27T17:05:01.764Z,4.75
2018-02-27T17:07:29.276Z,3.75
2018-02-27T17:09:56.727Z,3.15
2018-02-27T17:12:24.551Z,3.05
2018-02-27T17:14:51.968Z,3.10
2018-02-27T17:17:19.431Z,2.15
2018-02-27T17:19:46.892Z,3.10
2018-02-27T17:22:14.648Z,2.15
2018-02-27T17:24:42.324Z,1.90
2018-02-27T17:27:09.785Z,6.05
2018-02-27T17:29:37.323Z,3.03
2018-02-27T17:32:04.780Z,4.82
2018-02-27T17:34:32.247Z,2.87
2018-02-27T17:36:59.926Z,9.88
2018-02-27T17:39:27.462Z,2.67
2018-02-27T17:41:55.223Z,8.38
2018-02-27T17:44:22.692Z,3.08
2018-02-27T17:46:50.336Z,2.72
2018-02-27T17:49:17.916Z,5.80
2018-02-27T17:51:45.672Z,12.55
2018-02-27T17:54:13.448Z,2.97
2018-02-27T17:56:40.904Z,2.10
2018-02-27T17:59:08.658Z,5.80
2018-02-27T18:01:36.134Z,10.43
2018-02-27T18:04:03.599Z,5.70
2018-02-27T18:06:31.348Z,3.45
2018-02-27T18:08:58.826Z,5.25
2018-02-27T18:11:26.559Z,2.67
2018-02-27T18:13:54.331Z,3.70
2018-02-27T18:16:22.009Z,2.87
2018-02-27T18:18:49.455Z,2.37
2018-02-27T18:21:17.011Z,2.87
2018-02-27T18:23:44.463Z,3.05
2018-02-27T18:26:12.234Z,2.03
2018-02-27T18:28:39.699Z,6.28
2018-02-27T18:31:07.152Z,3.05
2018-02-27T18:33:34.608Z,7.10
2018-02-27T18:36:02.303Z,10.07
2018-02-27T18:38:29.756Z,5.50
2018-02-27T18:40:57.207Z,6.80
2018-02-27T18:43:24.672Z,9.18
2018-02-27T18:45:52.129Z,14.48
2018-02-27T18:48:20.536Z,7.30
2018-02-27T18:50:48.041Z,13.95
2018-02-27T18:53:15.803Z,12.13
2018-02-27T18:55:43.567Z,8.35
2018-02-27T18:58:11.028Z,17.75
2018-02-27T19:00:38.491Z,10.95
2018-02-27T19:03:05.971Z,10.13
2018-02-27T19:05:33.495Z,9.88
2018-02-27T19:08:01.080Z,10.82
2018-02-27T19:10:28.660Z,27.98
2018-02-27T19:12:56.986Z,8.70
2018-02-27T19:15:24.445Z,27.58
2018-02-27T19:17:51.904Z,9.30
2018-02-27T19:20:19.396Z,19.60
2018-02-27T19:22:46.839Z,15.13
2018-02-27T19:25:14.544Z,10.52
2018-02-27T19:27:42.007Z,11.98
2018-02-27T19:30:09.465Z,10.88
2018-02-27T19:32:36.932Z,21.85
2018-02-27T19:35:04.398Z,12.70
2018-02-27T19:37:32.050Z,14.25
2018-02-27T19:39:59.604Z,15.55
2018-02-27T19:42:27.117Z,9.85
2018-02-27T19:44:54.804Z,19.45
2018-02-27T19:47:22.269Z,11.80
2018-02-27T19:49:49.723Z,12.55
2018-02-27T19:52:17.260Z,14.50
2018-02-27T19:54:44.940Z,8.45
2018-02-27T19:57:12.405Z,19.35
2018-02-27T19:59:39.931Z,8.07
2018-02-27T20:02:07.710Z,14.40
2018-02-27T20:04:35.212Z,13.68
2018-02-27T20:07:02.676Z,18.70
2018-02-27T20:09:30.142Z,13.25
2018-02-27T20:11:57.848Z,15.05
2018-02-27T20:14:30.120Z,20.55
2018-02-27T20:16:57.693Z,24.55
2018-02-27T20:19:25.363Z,23.98
2018-02-27T20:21:52.819Z,29.50
2018-02-27T20:24:20.285Z,25.67
2018-02-27T20:26:47.748Z,21.00
2018-02-27T20:29:20.762Z,30.15
2018-02-27T20:31:48.223Z,22.33
2018-02-27T20:34:16.016Z,13.68
2018-02-27T20:36:43.782Z,15.10
2018-02-27T20:39:16.848Z,13.57
2018-02-27T20:41:44.540Z,15.07
2018-02-27T20:44:12.007Z,7.15
2018-02-27T20:46:39.539Z,10.13
2018-02-27T20:49:07.004Z,21.80
2018-02-27T20:51:34.600Z,10.98
2018-02-27T20:54:02.121Z,13.77
2018-02-27T20:56:29.600Z,12.40
2018-02-27T20:58:57.049Z,8.90
2018-02-27T21:01:24.507Z,7.80
2018-02-27T21:03:51.971Z,8.35
2018-02-27T21:06:19.425Z,12.05
2018-02-27T21:08:46.908Z,11.00
2018-02-27T21:11:14.651Z,13.75
2018-02-27T21:13:42.112Z,19.27
2018-02-27T21:16:09.580Z,14.57
2018-02-27T21:18:37.322Z,13.45
2018-02-27T21:21:04.793Z,14.77
2018-02-27T21:23:32.460Z,20.98
2018-02-27T21:26:00.008Z,15.15
2018-02-27T21:28:27.475Z,11.23
2018-02-27T21:30:54.936Z,10.38
2018-02-27T21:33:22.417Z,10.32
2018-02-27T21:35:49.871Z,14.93
2018-02-27T21:38:17.524Z,12.02
2018-02-27T21:40:45.906Z,16.85
2018-02-27T21:43:13.368Z,10.80
2018-02-27T21:45:40.912Z,10.82
2018-02-27T21:48:08.371Z,10.45
2018-02-27T21:50:36.127Z,11.07
2018-02-27T21:53:03.888Z,12.85
2018-02-27T21:55:31.345Z,16.08
2018-02-27T21:57:58.904Z,12.27
2018-02-27T22:00:26.569Z,8.50
2018-02-27T22:02:54.029Z,10.80
2018-02-27T22:05:21.498Z,9.38
2018-02-27T22:07:48.951Z,16.02
2018-02-27T22:10:16.459Z,10.13
2018-02-27T22:12:44.075Z,8.65
2018-02-27T22:15:11.540Z,10.27
2018-02-27T22:17:39.080Z,8.00
2018-02-27T22:20:06.542Z,13.55
2018-02-27T22:22:34.312Z,10.75
2018-02-27T22:25:01.768Z,9.13
2018-02-27T22:27:29.228Z,12.23
2018-02-27T22:29:56.715Z,9.15
2018-02-27T22:32:24.294Z,10.05
2018-02-27T22:34:51.746Z,9.68
2018-02-27T22:37:19.205Z,7.12
2018-02-27T22:39:46.824Z,8.98
2018-02-27T22:42:14.284Z,11.20
2018-02-27T22:44:42.040Z,8.13
2018-02-27T22:47:09.528Z,9.18
2018-02-27T22:49:37.269Z,10.65
2018-02-27T22:52:04.732Z,15.40
2018-02-27T22:54:32.198Z,10.55
2018-02-27T22:56:59.946Z,6.30
2018-02-27T22:59:27.399Z,9.90
2018-02-27T23:01:54.858Z,8.00
2018-02-27T23:04:22.632Z,7.53
2018-02-27T23:06:50.092Z,8.05
2018-02-27T23:09:17.567Z,11.20
2018-02-27T23:11:45.216Z,6.62
2018-02-27T23:14:12.676Z,11.45
2018-02-27T23:16:40.220Z,8.43
2018-02-27T23:19:07.680Z,11.10
2018-02-27T23:21:35.136Z,8.93
2018-02-27T23:24:11.246Z,10.35
2018-02-27T23:26:40.624Z,6.50
2018-02-27T23:29:10.458Z,9.75
2018-02-27T23:31:38.527Z,11.32
2018-02-27T23:34:10.183Z,13.80
2018-02-27T23:36:37.654Z,12.77
2018-02-27T23:39:05.167Z,9.20
2018-02-27T23:41:32.847Z,10.48
2018-02-27T23:44:00.380Z,8.48
2018-02-27T23:46:27.839Z,9.63
2018-02-27T23:48:55.300Z,9.90
2018-02-27T23:51:23.216Z,7.55
2018-02-27T23:53:50.707Z,24.98
2018-02-27T23:56:18.206Z,12.40
2018-02-27T23:58:46.052Z,12.57
